Time;durP1;ratioP1;P1;durP2;ratioP2;P2;SDS_P1;SDS_P2;PMS_P1;PMS_P2;Temp;Humidity;BMP_temperature;BMP_pressure;BME280_temperature;BME280_humidity;BME280_pressure;Samples;Min_cycle;Max_cycle;Signal;HPM_P1;HPM_P2
2024/04/18 00:01:00;;;;;;;;;;;3.90;99.90;;;;;;5491626;26;19923;-49
2024/04/18 00:03:27;;;;;;;4.20;1.15;;;3.90;99.90;;;;;;5522690;26;19923;-54
2024/04/18 00:05:52;;;;;;;4.18;1.13;;;3.80;99.90;;;;;;5497777;26;20005;-53
2024/04/18 00:08:18;;;;;;;3.45;1.23;;;3.80;99.90;;;;;;5516825;26;20001;-50
2024/04/18 00:10:45;;;;;;;;;;;3.80;99.90;;;;;;5512912;26;20357;-56
2024/04/18 00:13:10;;;;;;;6.43;1.42;;;4.00;99.90;;;;;;5504714;26;19992;-53
2024/04/18 00:15:38;;;;;;;7.78;1.50;;;4.20;99.90;;;;;;5483889;26;20442;-50
2024/04/18 00:18:04;;;;;;;7.25;1.33;;;4.90;99.90;;;;;;5519014;26;20013;-53
2024/04/18 00:20:29;;;;;;;4.88;1.30;;;3.90;99.90;;;;;;5485479;26;20453;-54
2024/04/18 00:22:55;;;;;;;5.82;1.40;;;3.90;99.90;;;;;;5522922;26;20016;-48
2024/04/18 00:25:21;;;;;;;2.40;1.27;;;3.90;99.90;;;;;;5522463;26;20081;-51
2024/04/18 00:27:46;;;;;;;3.58;1.30;;;3.80;99.90;;;;;;5522009;26;20046;-54
2024/04/18 00:30:12;;;;;;;3.47;1.40;;;3.80;99.90;;;;;;5486960;26;20018;-50
2024/04/18 00:32:38;;;;;;;5.70;1.60;;;3.80;99.60;;;;;;5490668;26;20348;-50
2024/04/18 00:35:03;;;;;;;;;;;3.70;99.50;;;;;;5523481;25;20005;-52
2024/04/18 00:37:29;;;;;;;;;;;3.70;99.60;;;;;;5497146;26;20018;-47
2024/04/18 00:39:55;;;;;;;6.35;1.80;;;3.80;99.90;;;;;;5502539;26;19935;-51
2024/04/18 00:42:20;;;;;;;2.92;1.20;;;3.70;99.90;;;;;;5522295;26;20001;-54
2024/04/18 00:45:01;;;;;;;;;;;3.70;99.30;;;;;;5523000;26;20005;-48
2024/04/18 00:47:28;;;;;;;4.47;1.45;;;3.70;99.90;;;;;;5522986;26;20376;-48
2024/04/18 00:49:53;;;;;;;4.93;1.70;;;4.10;99.90;;;;;;5518313;26;20006;-53
2024/04/18 00:52:39;;;;;;;3.85;1.40;;;5.10;99.90;;;;;;5484258;26;20593;-51
2024/04/18 00:55:07;;;;;;;4.43;1.30;;;3.60;99.60;;;;;;5512989;26;20012;-55
2024/04/18 00:57:53;;;;;;;3.10;1.35;;;3.60;99.30;;;;;;5483815;26;20040;-54
2024/04/18 01:00:19;;;;;;;;;;;3.60;99.80;;;;;;5490002;26;20476;-52
2024/04/18 01:02:44;;;;;;;3.25;1.00;;;3.60;99.90;;;;;;5490199;26;19999;-52
2024/04/18 01:05:12;;;;;;;2.03;0.90;;;4.90;99.90;;;;;;5521718;26;19998;-51
2024/04/18 01:07:38;;;;;;;3.05;0.98;;;3.60;99.90;;;;;;5489864;26;20350;-53
2024/04/18 01:10:04;;;;;;;3.03;0.80;;;3.60;99.90;;;;;;5518210;26;20005;-53
2024/04/18 01:12:29;;;;;;;1.58;0.80;;;4.80;99.90;;;;;;5513297;26;20066;-53
2024/04/18 01:14:55;;;;;;;3.65;1.00;;;3.20;99.90;;;;;;5505116;26;20469;-52
2024/04/18 01:17:21;;;;;;;5.70;1.00;;;2.90;99.90;;;;;;5521951;26;20013;-51
2024/04/18 01:19:46;;;;;;;2.08;0.98;;;3.10;99.90;;;;;;5483857;26;20344;-53
2024/04/18 01:22:12;;;;;;;;;;;3.00;99.90;;;;;;5522144;26;20445;-51
2024/04/18 01:24:38;;;;;;;;;;;2.90;99.90;;;;;;5522263;26;19931;-49
2024/04/18 01:27:04;;;;;;;2.53;1.00;;;2.90;99.90;;;;;;5521873;26;20263;-51
2024/04/18 01:29:31;;;;;;;5.10;1.35;;;2.50;99.90;;;;;;5481018;26;20005;-58
2024/04/18 01:31:56;;;;;;;2.78;1.08;;;3.00;99.90;;;;;;5521851;26;20006;-54
2024/04/18 01:34:22;;;;;;;3.67;1.30;;;3.00;99.90;;;;;;5484256;26;20025;-50
2024/04/18 01:36:48;;;;;;;;;;;3.00;99.90;;;;;;5501606;26;20002;-51
2024/04/18 01:39:14;;;;;;;;;;;3.00;99.90;;;;;;5510855;26;19946;-49
2024/04/18 01:41:39;;;;;;;;;;;3.00;99.90;;;;;;5521371;26;20359;-48
2024/04/18 01:44:06;;;;;;;4.63;1.52;;;3.00;99.90;;;;;;5498624;26;19935;-48
2024/04/18 01:46:32;;;;;;;8.85;1.67;;;3.10;99.90;;;;;;5519510;26;20016;-50
2024/04/18 01:48:58;;;;;;;6.47;1.63;;;3.20;99.90;;;;;;5512338;26;20010;-55
2024/04/18 01:51:24;;;;;;;4.75;1.45;;;3.20;99.90;;;;;;5508604;26;20013;-48
2024/04/18 01:53:49;;;;;;;3.47;1.40;;;1.10;99.90;;;;;;5489171;26;20005;-52
2024/04/18 01:56:15;;;;;;;4.40;1.30;;;3.10;99.90;;;;;;5520512;26;20441;-48
2024/04/18 01:58:41;;;;;;;5.65;1.75;;;3.20;99.90;;;;;;5517724;26;20010;-51
2024/04/18 02:01:07;;;;;;;3.05;1.17;;;3.20;99.90;;;;;;5463239;26;20078;-51
2024/04/18 02:03:32;;;;;;;1.92;0.85;;;3.30;99.90;;;;;;5512091;26;20020;-53
2024/04/18 02:05:59;;;;;;;1.65;0.90;;;4.40;99.90;;;;;;5520847;26;20002;-49
2024/04/18 02:08:24;;;;;;;1.90;0.80;;;3.00;99.90;;;;;;5521796;26;20024;-52
2024/04/18 02:10:50;;;;;;;1.58;0.85;;;3.00;99.90;;;;;;5493301;26;20006;-47
2024/04/18 02:13:16;;;;;;;2.03;0.98;;;2.90;99.90;;;;;;5489313;26;20009;-51
2024/04/18 02:15:42;;;;;;;3.03;0.93;;;2.80;99.90;;;;;;5520538;26;20013;-51
2024/04/18 02:18:07;;;;;;;2.75;1.20;;;2.80;99.90;;;;;;5520207;26;20005;-53
2024/04/18 02:20:33;;;;;;;4.68;1.80;;;2.80;99.90;;;;;;5517687;26;20016;-55
2024/04/18 02:22:59;;;;;;;4.43;1.30;;;2.80;99.90;;;;;;5520076;26;20023;-53
2024/04/18 02:25:24;;;;;;;2.83;1.60;;;2.90;99.20;;;;;;5519557;26;20006;-53
2024/04/18 02:27:50;;;;;;;5.72;1.85;;;3.10;99.90;;;;;;5519168;26;20089;-48
2024/04/18 02:30:16;;;;;;;4.95;1.50;;;3.00;99.90;;;;;;5497206;26;20006;-50
2024/04/18 02:32:42;;;;;;;4.28;1.30;;;3.10;99.90;;;;;;5481755;26;20005;-50
2024/04/18 02:35:07;;;;;;;5.00;1.45;;;3.10;99.90;;;;;;5519394;26;20020;-50
2024/04/18 02:37:34;;;;;;;4.80;1.65;;;3.20;99.90;;;;;;5512175;26;20006;-50
2024/04/18 02:40:00;;;;;;;3.75;1.52;;;3.90;99.90;;;;;;5518744;26;20006;-53
2024/04/18 02:42:26;;;;;;;5.63;1.55;;;3.30;99.90;;;;;;5503613;26;20074;-51
2024/04/18 02:44:52;;;;;;;6.85;1.60;;;3.40;99.90;;;;;;5505596;26;20016;-52
2024/04/18 02:47:18;;;;;;;10.25;1.73;;;3.40;99.90;;;;;;5472528;26;20006;-52
2024/04/18 02:49:44;;;;;;;4.90;1.52;;;3.00;99.90;;;;;;5497312;26;20020;-57
2024/04/18 02:52:10;;;;;;;3.50;1.48;;;3.40;99.90;;;;;;5484815;26;20346;-50
2024/04/18 02:54:36;;;;;;;5.65;1.42;;;3.90;99.90;;;;;;5502170;26;20017;-56
2024/04/18 02:57:02;;;;;;;3.88;1.45;;;4.60;99.90;;;;;;5522474;26;20018;-54
2024/04/18 02:59:27;;;;;;;3.60;1.52;;;3.60;99.90;;;;;;5521477;26;20006;-52
2024/04/18 03:01:53;;;;;;;3.33;1.35;;;3.40;99.90;;;;;;5524183;26;20017;-51
2024/04/18 03:04:19;;;;;;;5.97;1.80;;;3.40;99.90;;;;;;5523827;26;20016;-49
2024/04/18 03:06:47;;;;;;;3.97;1.60;;;4.60;99.90;;;;;;5523782;26;20105;-53
2024/04/18 03:09:14;;;;;;;3.38;1.42;;;3.50;99.90;;;;;;5502846;26;20015;-54
2024/04/18 03:11:40;;;;;;;2.58;1.30;;;3.90;99.90;;;;;;5506020;26;20006;-50
2024/04/18 03:14:06;;;;;;;2.60;1.30;;;3.60;99.90;;;;;;5512955;26;20006;-54
2024/04/18 03:16:32;;;;;;;2.95;1.33;;;3.60;99.90;;;;;;5500497;26;20023;-50
2024/04/18 03:19:18;;;;;;;5.05;1.48;;;4.80;99.90;;;;;;5468639;26;20074;-50
2024/04/18 03:21:45;;;;;;;;;;;3.70;99.90;;;;;;5503927;26;20374;-47
2024/04/18 03:24:21;;;;;;;5.25;1.50;;;3.80;99.90;;;;;;5524155;26;19952;-52
2024/04/18 03:26:50;;;;;;;5.60;1.50;;;3.70;99.90;;;;;;5499696;26;20005;-51
2024/04/18 03:29:35;;;;;;;5.70;1.73;;;5.20;99.90;;;;;;5489176;26;20017;-50
2024/04/18 03:32:03;;;;;;;5.93;1.73;;;4.10;99.90;;;;;;5490765;26;20493;-47
2024/04/18 03:34:29;;;;;;;9.98;2.28;;;3.80;99.90;;;;;;5523549;26;20001;-52
2024/04/18 03:36:54;;;;;;;4.82;1.70;;;3.90;99.90;;;;;;5523355;26;20006;-54
2024/04/18 03:39:20;;;;;;;5.70;1.70;;;4.10;99.90;;;;;;5523941;26;20017;-48
2024/04/18 03:41:47;;;;;;;4.05;1.33;;;3.90;99.90;;;;;;5515815;26;20372;-48
2024/04/18 03:44:13;;;;;;;3.42;1.55;;;4.00;99.90;;;;;;5523560;26;20005;-52
2024/04/18 03:46:53;;;;;;;3.13;1.30;;;3.90;99.90;;;;;;5514512;26;20551;-52
2024/04/18 03:49:19;;;;;;;5.47;1.48;;;3.80;99.90;;;;;;5513411;26;20009;-49
2024/04/18 03:52:05;;;;;;;4.65;1.45;;;3.30;99.90;;;;;;5485347;26;20009;-50
2024/04/18 03:54:33;;;;;;;3.35;1.30;;;;;;;;;;5523089;26;20005;-58
2024/04/18 03:57:18;;;;;;;4.05;1.15;;;1.90;99.90;;;;;;5495629;26;20455;-54
2024/04/18 03:59:44;;;;;;;3.80;1.40;;;3.70;99.90;;;;;;5523438;26;20006;-50
2024/04/18 04:02:10;;;;;;;4.03;1.20;;;3.40;99.90;;;;;;5506636;26;20001;-50
2024/04/18 04:04:43;;;;;;;3.42;1.40;;;3.20;99.90;;;;;;5523261;26;20058;-48
2024/04/18 04:07:09;;;;;;;3.63;1.30;;;3.40;99.90;;;;;;5499120;26;20045;-54
2024/04/18 04:09:44;;;;;;;2.75;1.10;;;4.00;99.90;;;;;;5510761;26;20002;-52
2024/04/18 04:12:10;;;;;;;3.28;1.13;;;3.30;99.90;;;;;;5521589;26;20005;-48
2024/04/18 04:14:36;;;;;;;3.47;1.15;;;3.80;99.90;;;;;;5490556;26;20461;-50
2024/04/18 04:17:37;;;;;;;2.38;1.10;;;4.20;99.90;;;;;;5445622;26;20479;-50
2024/04/18 04:20:03;;;;;;;3.03;1.10;;;3.70;99.90;;;;;;5521939;26;20005;-51
2024/04/18 04:22:28;;;;;;;;;;;3.20;99.90;;;;;;5521870;26;20013;-53
2024/04/18 04:24:54;;;;;;;6.93;1.52;;;3.40;99.90;;;;;;5513501;26;20445;-55
2024/04/18 04:27:40;;;;;;;4.80;1.30;;;3.20;99.90;;;;;;5450560;26;20070;-55
2024/04/18 04:30:07;;;;;;;4.07;1.15;;;4.20;99.90;;;;;;5502645;26;20017;-57
2024/04/18 04:32:32;;;;;;;3.03;1.13;;;3.10;99.90;;;;;;5522017;26;20451;-57
2024/04/18 04:34:58;;;;;;;3.97;1.27;;;3.10;99.90;;;;;;5522888;26;20001;-57
2024/04/18 04:37:23;;;;;;;3.90;1.30;;;3.10;99.90;;;;;;5515996;26;20006;-58
2024/04/18 04:39:49;;;;;;;3.50;1.02;;;3.10;99.90;;;;;;5521244;26;20001;-57
2024/04/18 04:42:15;;;;;;;3.20;1.00;;;3.10;99.90;;;;;;5522085;26;20400;-57
2024/04/18 04:44:42;;;;;;;3.38;1.02;;;1.50;99.90;;;;;;5522373;26;20005;-57
2024/04/18 04:47:08;;;;;;;3.35;1.20;;;3.00;99.90;;;;;;5522729;26;20001;-57
2024/04/18 04:49:34;;;;;;;1.83;0.95;;;4.00;99.90;;;;;;5501420;26;20016;-57
2024/04/18 04:52:00;;;;;;;2.28;1.10;;;3.10;99.90;;;;;;5496092;26;20445;-57
2024/04/18 04:54:26;;;;;;;3.03;1.00;;;3.20;99.90;;;;;;5522930;26;20015;-57
2024/04/18 04:56:52;;;;;;;2.83;1.27;;;3.10;99.90;;;;;;5520957;26;20002;-56
2024/04/18 04:59:18;;;;;;;5.45;1.10;;;3.20;99.90;;;;;;5522701;26;20006;-57
2024/04/18 05:01:43;;;;;;;4.78;1.50;;;3.30;99.90;;;;;;5511742;26;20002;-57
2024/04/18 05:04:10;;;;;;;4.53;1.30;;;3.50;99.90;;;;;;5485676;26;20386;-57
2024/04/18 05:06:35;;;;;;;3.35;1.17;;;3.60;99.90;;;;;;5506660;26;20452;-57
2024/04/18 05:09:02;;;;;;;3.35;1.30;;;5.40;99.90;;;;;;5521197;26;20244;-57
2024/04/18 05:11:28;;;;;;;7.32;1.20;;;2.90;99.90;;;;;;5520582;26;20006;-57
2024/04/18 05:13:54;;;;;;;3.90;1.33;;;3.80;99.90;;;;;;5511412;26;20005;-57
2024/04/18 05:16:20;;;;;;;3.70;1.27;;;3.50;99.90;;;;;;5510380;26;20010;-57
2024/04/18 05:18:45;;;;;;;4.72;1.58;;;4.10;99.90;;;;;;5511243;26;20016;-58
2024/04/18 05:21:11;;;;;;;2.72;1.35;;;4.60;99.90;;;;;;5521699;26;20005;-58
2024/04/18 05:23:37;;;;;;;;;;;4.40;99.90;;;;;;5489755;26;20093;-57
2024/04/18 05:26:02;;;;;;;;;;;4.60;99.90;;;;;;5459623;26;20363;-57
2024/04/18 05:28:40;;;;;;;;;;;4.80;99.90;;;;;;5506175;26;19927;-58
2024/04/18 05:31:21;;;;;;;9.30;1.50;;;5.10;99.90;;;;;;5511233;26;19924;-57
2024/04/18 05:33:47;;;;;;;6.35;1.48;;;5.60;99.90;;;;;;5517596;26;20012;-57
2024/04/18 05:36:12;;;;;;;;;;;6.40;99.90;;;;;;5504478;26;20418;-57
2024/04/18 05:38:38;;;;;;;;;;;7.10;99.90;;;;;;5487393;26;19931;-57
2024/04/18 05:41:04;;;;;;;;;;;7.50;99.90;;;;;;5513108;26;20006;-58
2024/04/18 05:43:29;;;;;;;4.63;1.20;;;8.00;99.90;;;;;;5510733;26;19923;-57
2024/04/18 05:45:55;;;;;;;;;;;8.30;99.90;;;;;;5489916;26;20016;-56
2024/04/18 05:48:21;;;;;;;4.93;1.15;;;8.20;99.90;;;;;;5463690;26;20072;-58
2024/04/18 05:50:47;;;;;;;4.90;1.10;;;8.00;99.90;;;;;;5502066;26;20006;-57
2024/04/18 05:53:12;;;;;;;;;;;7.80;99.90;;;;;;5490233;26;20052;-58
2024/04/18 05:55:38;;;;;;;4.00;0.90;;;7.60;99.90;;;;;;5520100;26;19991;-58
2024/04/18 05:58:03;;;;;;;;;;;8.50;99.90;;;;;;5521083;26;20009;-58
2024/04/18 06:00:29;;;;;;;3.85;0.80;;;7.50;99.90;;;;;;5521326;26;19923;-57
2024/04/18 06:02:55;;;;;;;;;;;7.60;99.90;;;;;;5519815;26;20704;-57
2024/04/18 06:05:20;;;;;;;4.30;0.90;;;8.10;99.90;;;;;;5517721;26;20358;-57
2024/04/18 06:07:46;;;;;;;3.28;1.00;;;8.50;99.90;;;;;;5457964;26;20087;-57
2024/04/18 06:10:13;;;;;;;4.75;1.05;;;9.00;99.90;;;;;;5502034;26;20017;-58
2024/04/18 06:12:38;;;;;;;;;;;10.10;99.90;;;;;;5495984;26;20006;-58
2024/04/18 06:15:04;;;;;;;2.92;0.90;;;11.30;99.90;;;;;;5510730;26;20286;-57
2024/04/18 06:17:30;;;;;;;;;;;12.40;99.90;;;;;;5506613;26;20464;-58
2024/04/18 06:19:56;;;;;;;3.35;0.90;;;13.50;99.90;;;;;;5518320;26;19923;-55
2024/04/18 06:22:21;;;;;;;;;;;14.80;99.90;;;;;;5522100;26;20013;-56
2024/04/18 06:24:47;;;;;;;3.58;0.80;;;15.20;99.90;;;;;;5523369;26;19923;-55
2024/04/18 06:27:13;;;;;;;;;;;16.00;99.90;;;;;;5519986;26;20022;-55
2024/04/18 06:29:38;;;;;;;2.67;0.80;;;16.80;82.70;;;;;;5524251;26;19924;-55
2024/04/18 06:32:04;;;;;;;3.08;0.60;;;17.40;99.90;;;;;;5525070;26;20085;-55
2024/04/18 06:34:30;;;;;;;;;;;17.50;99.90;;;;;;5524457;26;20033;-57
2024/04/18 06:36:55;;;;;;;4.50;1.00;;;17.90;99.90;;;;;;5522436;26;19924;-56
2024/04/18 06:39:21;;;;;;;5.45;0.75;;;18.10;99.90;;;;;;5501337;26;20169;-55
2024/04/18 06:41:47;;;;;;;3.42;0.90;;;17.70;99.90;;;;;;5508958;26;20021;-55
2024/04/18 06:44:13;;;;;;;2.70;1.00;;;18.40;99.90;;;;;;5454196;26;20006;-56
2024/04/18 06:47:03;;;;;;;2.60;0.93;;;18.90;99.90;;;;;;5524141;26;20005;-55
2024/04/18 06:49:29;;;;;;;6.50;1.10;;;19.30;1.00;;;;;;5500175;26;20001;-56
2024/04/18 06:51:55;;;;;;;2.65;0.90;;;19.50;99.90;;;;;;5497977;26;20017;-56
2024/04/18 06:54:20;;;;;;;2.75;0.60;;;19.70;1.00;;;;;;5524403;26;20400;-58
2024/04/18 06:56:46;;;;;;;1.08;0.50;;;19.40;1.00;;;;;;5522741;26;20018;-56
2024/04/18 06:59:12;;;;;;;4.43;0.60;;;18.10;1.00;;;;;;5503352;26;20453;-56
2024/04/18 07:01:38;;;;;;;2.95;0.68;;;17.40;1.00;;;;;;5491886;26;20006;-56
2024/04/18 07:04:03;;;;;;;4.50;0.95;;;17.60;1.00;;;;;;5491606;26;20024;-56
2024/04/18 07:06:29;;;;;;;2.13;0.77;;;17.90;99.90;;;;;;5524042;26;20013;-57
2024/04/18 07:09:04;;;;;;;2.88;0.70;;;19.10;1.00;;;;;;5488589;26;20103;-56
2024/04/18 07:11:31;;;;;;;4.60;0.90;;;19.90;99.90;;;;;;5522980;26;20852;-56
2024/04/18 07:13:56;;;;;;;2.67;0.70;;;18.60;99.90;;;;;;5524007;26;20020;-57
2024/04/18 07:16:22;;;;;;;3.00;0.80;;;19.00;1.00;;;;;;5508481;26;20018;-56
2024/04/18 07:18:48;;;;;;;3.00;0.82;;;19.50;77.70;;;;;;5510481;26;20013;-57
2024/04/18 07:21:14;;;;;;;3.38;0.80;;;20.20;1.00;;;;;;5523949;26;20017;-57
2024/04/18 07:23:41;;;;;;;3.28;0.70;;;19.90;1.00;;;;;;5523358;26;20002;-57
2024/04/18 07:26:06;;;;;;;2.58;0.52;;;19.20;1.00;;;;;;5490236;26;20009;-57
2024/04/18 07:28:32;;;;;;;4.32;0.90;;;17.90;1.00;;;;;;5510975;26;20017;-56
2024/04/18 07:30:58;;;;;;;5.03;0.70;;;17.10;99.90;;;;;;5512396;26;20005;-56
2024/04/18 07:33:24;;;;;;;3.13;0.80;;;16.30;99.90;;;;;;5522936;26;20054;-56
2024/04/18 07:35:53;;;;;;;2.42;0.60;;;15.90;99.90;;;;;;5504742;26;20005;-56
2024/04/18 07:38:19;;;;;;;6.55;1.00;;;15.90;1.00;;;;;;5520168;26;20077;-58
2024/04/18 07:40:45;;;;;;;4.57;0.70;;;14.90;45.00;;;;;;5508674;26;20017;-56
2024/04/18 07:43:10;;;;;;;2.75;0.73;;;14.40;99.90;;;;;;5522089;26;20005;-56
2024/04/18 07:45:38;;;;;;;2.47;0.50;;;14.20;1.00;;;;;;5512850;26;20479;-56
2024/04/18 07:48:06;;;;;;;2.40;0.60;;;14.00;15.30;;;;;;5508245;26;20020;-56
2024/04/18 07:50:31;;;;;;;3.75;0.82;;;14.40;38.70;;;;;;5510514;26;20014;-58
2024/04/18 07:52:57;;;;;;;2.40;0.60;;;14.90;4.90;;;;;;5475914;26;20358;-56
2024/04/18 07:55:23;;;;;;;2.42;0.60;;;15.70;99.90;;;;;;5522413;26;20006;-56
2024/04/18 07:57:49;;;;;;;1.55;0.60;;;16.80;99.90;;;;;;5516008;26;20002;-58
2024/04/18 08:00:15;;;;;;;2.55;0.65;;;17.70;1.00;;;;;;5515190;26;20014;-57
2024/04/18 08:02:41;;;;;;;6.25;0.80;;;18.20;1.00;;;;;;5523567;26;20024;-56
2024/04/18 08:05:07;;;;;;;1.42;0.55;;;18.30;1.00;;;;;;5497966;26;20554;-56
2024/04/18 08:07:32;;;;;;;3.53;0.95;;;17.40;9.90;;;;;;5520158;26;20013;-57
2024/04/18 08:09:59;;;;;;;3.25;0.80;;;17.00;1.00;;;;;;5510548;26;20005;-56
2024/04/18 08:12:25;;;;;;;4.00;0.80;;;16.00;1.00;;;;;;5478916;26;20015;-56
2024/04/18 08:14:51;;;;;;;2.22;0.80;;;15.40;99.90;;;;;;5507393;26;20014;-56
2024/04/18 08:17:17;;;;;;;2.40;0.77;;;14.20;76.80;;;;;;5506488;26;20005;-56
2024/04/18 08:19:43;;;;;;;3.47;0.90;;;13.30;99.90;;;;;;5473147;26;20025;-56
2024/04/18 08:22:08;;;;;;;3.10;0.80;;;12.60;39.30;;;;;;5522907;26;20075;-56
2024/04/18 08:24:35;;;;;;;5.35;0.88;;;11.80;72.70;;;;;;5510611;26;20020;-58
2024/04/18 08:27:01;;;;;;;3.55;0.85;;;11.40;92.80;;;;;;5510671;26;20005;-56
2024/04/18 08:29:33;;;;;;;3.38;0.70;;;11.20;99.90;;;;;;5522215;26;20005;-56
2024/04/18 08:31:59;;;;;;;3.58;0.80;;;11.10;99.90;;;;;;5522752;26;20081;-57
2024/04/18 08:34:24;;;;;;;2.65;0.80;;;11.10;99.90;;;;;;5517392;26;20449;-56
2024/04/18 08:36:50;;;;;;;2.97;0.90;;;11.00;99.90;;;;;;5515998;26;20020;-58
2024/04/18 08:39:16;;;;;;;3.15;0.80;;;10.90;99.90;;;;;;5489577;26;20005;-56
2024/04/18 08:41:43;;;;;;;4.93;0.80;;;10.90;99.90;;;;;;5519827;26;20005;-55
2024/04/18 08:44:10;;;;;;;3.75;0.80;;;11.00;99.90;;;;;;5465602;26;20016;-56
2024/04/18 08:46:37;;;;;;;6.93;0.82;;;11.30;99.90;;;;;;5509691;26;20005;-56
2024/04/18 08:49:07;;;;;;;3.78;1.08;;;11.90;99.90;;;;;;5494230;26;20078;-56
2024/04/18 08:51:37;;;;;;;2.65;0.70;;;12.40;99.90;;;;;;5509176;26;20008;-57
2024/04/18 08:54:07;;;;;;;3.05;0.90;;;13.70;99.90;;;;;;5518080;26;20333;-57
2024/04/18 08:56:34;;;;;;;3.28;1.10;;;14.70;27.80;;;;;;5496749;26;20532;-57
2024/04/18 08:59:00;;;;;;;2.58;0.80;;;17.10;1.00;;;;;;5516721;26;20034;-58
2024/04/18 09:01:26;;;;;;;3.17;0.80;;;18.40;99.90;;;;;;5517312;26;20005;-57
2024/04/18 09:03:55;;;;;;;3.80;0.80;;;19.70;64.00;;;;;;5514809;26;20005;-58
2024/04/18 09:06:21;;;;;;;3.25;0.93;;;21.00;99.90;;;;;;5483821;26;20050;-58
2024/04/18 09:08:51;;;;;;;2.30;0.82;;;21.40;99.90;;;;;;5511462;26;20005;-58
2024/04/18 09:11:18;;;;;;;5.65;0.80;;;21.00;1.00;;;;;;5494597;26;20323;-57
2024/04/18 09:13:45;;;;;;;5.13;0.82;;;19.10;99.90;;;;;;5438783;26;20021;-59
2024/04/18 09:16:11;;;;;;;3.47;0.85;;;18.00;99.90;;;;;;5489294;26;20040;-56
2024/04/18 09:18:40;;;;;;;3.40;0.70;;;18.10;99.90;;;;;;5502702;26;20001;-58
2024/04/18 09:21:11;;;;;;;4.78;0.90;;;18.60;99.90;;;;;;5491235;26;20002;-57
2024/04/18 09:23:39;;;;;;;4.40;1.02;;;18.30;99.90;;;;;;5496089;26;20002;-57
2024/04/18 09:26:05;;;;;;;4.85;1.00;;;16.80;99.90;;;;;;5504462;26;20006;-56
2024/04/18 09:28:30;;;;;;;4.68;1.00;;;15.50;77.20;;;;;;5516928;26;20664;-57
2024/04/18 09:30:58;;;;;;;4.75;0.90;;;14.60;99.90;;;;;;5513704;26;20508;-56
2024/04/18 09:33:25;;;;;;;2.58;1.00;;;13.80;1.00;;;;;;5491260;26;20006;-57
2024/04/18 09:35:55;;;;;;;3.80;0.85;;;12.80;1.00;;;;;;5518259;26;20017;-58
2024/04/18 09:38:22;;;;;;;4.15;1.08;;;12.80;1.00;;;;;;5498526;26;20016;-56
2024/04/18 09:41:12;;;;;;;3.85;1.15;;;12.70;1.00;;;;;;5455373;26;20542;-56
2024/04/18 09:44:17;;;;;;;3.40;1.10;;;12.00;1.00;;;;;;5450500;26;19997;-57
2024/04/18 09:46:43;;;;;;;4.25;0.80;;;11.70;1.00;;;;;;5509408;26;20443;-56
2024/04/18 09:49:09;;;;;;;3.08;0.85;;;11.70;23.10;;;;;;5495434;26;20006;-56
2024/04/18 09:51:36;;;;;;;3.78;0.70;;;11.80;29.70;;;;;;5510796;26;20085;-57
2024/04/18 09:54:02;;;;;;;2.65;0.80;;;11.50;33.50;;;;;;5505026;26;20006;-56
2024/04/18 09:56:29;;;;;;;2.97;0.90;;;11.50;54.40;;;;;;5485824;26;20003;-56
2024/04/18 09:58:59;;;;;;;3.58;0.88;;;11.60;51.40;;;;;;5497149;26;20009;-56
2024/04/18 10:01:25;;;;;;;3.92;0.70;;;11.70;52.80;;;;;;5499127;26;20002;-56
2024/04/18 10:03:51;;;;;;;5.13;0.90;;;11.90;51.60;;;;;;5514446;26;20020;-56
2024/04/18 10:06:24;;;;;;;2.85;0.90;;;12.00;40.80;;;;;;5519684;26;20007;-56
2024/04/18 10:08:51;;;;;;;3.45;0.90;;;12.30;60.30;;;;;;5519237;26;20002;-59
2024/04/18 10:11:21;;;;;;;3.85;0.82;;;13.00;85.30;;;;;;5518976;26;20453;-56
2024/04/18 10:13:49;;;;;;;2.90;0.80;;;13.40;94.90;;;;;;5484530;26;20001;-58
2024/04/18 10:16:15;;;;;;;3.90;0.90;;;14.30;66.20;;;;;;5519867;26;20005;-56
2024/04/18 10:18:42;;;;;;;6.28;0.80;;;15.00;1.00;;;;;;5519184;26;20033;-57
2024/04/18 10:21:12;;;;;;;4.78;1.00;;;15.40;99.90;;;;;;5484076;26;20537;-56
2024/04/18 10:23:47;;;;;;;5.65;1.17;;;15.20;99.90;;;;;;5519708;26;20016;-57
2024/04/18 10:26:17;;;;;;;5.03;0.95;;;15.60;99.90;;;;;;5515740;26;20337;-57
2024/04/18 10:28:44;;;;;;;6.22;1.17;;;15.80;99.90;;;;;;5507099;26;20005;-57
2024/04/18 10:31:11;;;;;;;5.55;1.23;;;16.10;99.90;;;;;;5511638;26;20006;-57
2024/04/18 10:33:39;;;;;;;6.20;1.20;;;15.60;1.00;;;;;;5509297;26;20020;-57
2024/04/18 10:36:09;;;;;;;7.22;1.00;;;15.30;99.90;;;;;;5517241;26;20002;-57
2024/04/18 10:38:35;;;;;;;7.07;1.50;;;15.40;1.00;;;;;;5517942;26;20018;-57
2024/04/18 10:41:04;;;;;;;4.93;0.98;;;15.60;99.90;;;;;;5493611;26;20009;-57
2024/04/18 10:43:32;;;;;;;5.35;1.10;;;15.30;99.90;;;;;;5518194;26;20077;-57
2024/04/18 10:46:00;;;;;;;5.10;1.08;;;15.00;99.90;;;;;;5506680;26;20652;-57
2024/04/18 10:48:27;;;;;;;7.05;1.42;;;14.50;15.70;;;;;;5514967;26;20453;-57
2024/04/18 10:50:53;;;;;;;4.55;1.08;;;13.70;99.90;;;;;;5518478;26;20002;-57
2024/04/18 10:53:22;;;;;;;4.68;0.93;;;13.00;1.00;;;;;;5518596;26;20058;-56
2024/04/18 10:55:47;;;;;;;4.70;1.10;;;12.50;1.00;;;;;;5490869;26;20018;-56
2024/04/18 10:58:15;;;;;;;5.05;1.00;;;12.20;1.00;;;;;;5506270;26;20472;-57
2024/04/18 11:00:44;;;;;;;5.20;1.10;;;12.00;1.00;;;;;;5481044;26;20005;-57
2024/04/18 11:03:11;;;;;;;5.47;1.10;;;11.90;1.00;;;;;;5519322;26;20465;-57
2024/04/18 11:05:37;;;;;;;5.88;0.88;;;12.10;1.00;;;;;;5520803;26;20017;-57
2024/04/18 11:08:04;;;;;;;4.60;0.90;;;12.30;12.20;;;;;;5522860;26;20447;-57
2024/04/18 11:10:31;;;;;;;4.80;1.05;;;12.50;80.60;;;;;;5497831;26;21419;-56
2024/04/18 11:12:57;;;;;;;5.85;1.10;;;13.80;84.90;;;;;;5517806;26;20005;-56
2024/04/18 11:15:24;;;;;;;3.75;0.90;;;12.70;81.60;;;;;;5522208;26;20001;-57
2024/04/18 11:17:56;;;;;;;9.38;1.40;;;13.00;92.60;;;;;;5523079;26;20020;-58
2024/04/18 11:20:22;;;;;;;8.57;1.15;;;13.20;89.30;;;;;;5518604;26;20013;-58
2024/04/18 11:22:48;;;;;;;7.65;1.23;;;13.50;84.60;;;;;;5522754;26;20081;-57
2024/04/18 11:25:14;;;;;;;5.82;1.30;;;13.40;73.80;;;;;;5521924;26;21631;-58
2024/04/18 11:27:40;;;;;;;5.70;1.00;;;13.80;89.30;;;;;;5507226;26;20077;-57
2024/04/18 11:30:13;;;;;;;3.40;1.10;;;13.80;49.80;;;;;;5518110;26;20013;-57
2024/04/18 11:32:39;;;;;;;4.03;1.02;;;14.00;34.70;;;;;;5519764;26;20427;-57
2024/04/18 11:35:05;;;;;;;6.13;1.20;;;13.80;1.00;;;;;;5516165;26;20018;-57
2024/04/18 11:37:37;;;;;;;6.43;1.20;;;13.60;1.00;;;;;;5521071;26;20084;-56
2024/04/18 11:40:09;;;;;;;7.90;1.10;;;13.50;1.00;;;;;;5488009;26;20013;-57
2024/04/18 11:42:35;;;;;;;5.47;1.00;;;12.80;1.00;;;;;;5520821;26;20064;-57
2024/04/18 11:45:01;;;;;;;7.32;1.38;;;13.10;1.00;;;;;;5510989;26;20006;-57
2024/04/18 11:47:27;;;;;;;5.18;1.25;;;12.40;15.70;;;;;;5512691;26;20014;-57
2024/04/18 11:49:53;;;;;;;7.55;0.95;;;12.60;1.00;;;;;;5506942;26;20016;-57
2024/04/18 11:52:19;;;;;;;6.38;1.00;;;12.70;55.00;;;;;;5509350;26;20005;-56
2024/04/18 11:54:44;;;;;;;6.85;1.08;;;12.60;12.70;;;;;;5443720;26;20450;-56
2024/04/18 11:57:10;;;;;;;7.03;1.40;;;12.80;42.80;;;;;;5511192;26;20330;-57
2024/04/18 11:59:37;;;;;;;8.10;1.20;;;12.90;20.40;;;;;;5485443;26;20341;-57
2024/04/18 12:02:04;;;;;;;4.43;1.38;;;12.80;14.30;;;;;;5510262;26;20208;-57
2024/04/18 12:04:30;;;;;;;11.20;1.50;;;12.80;83.00;;;;;;5523210;26;20013;-57
2024/04/18 12:06:56;;;;;;;5.13;1.40;;;12.80;61.60;;;;;;5488996;26;20077;-56
2024/04/18 12:09:21;;;;;;;8.13;1.23;;;13.10;29.80;;;;;;5466336;26;20013;-57
2024/04/18 12:11:47;;;;;;;4.40;1.10;;;13.00;48.60;;;;;;5509295;26;20013;-57
2024/04/18 12:14:13;;;;;;;6.75;1.05;;;13.40;33.70;;;;;;5484748;26;20490;-57
2024/04/18 12:16:42;;;;;;;8.18;1.40;;;13.80;87.80;;;;;;5522780;26;20016;-57
2024/04/18 12:19:08;;;;;;;8.40;1.30;;;14.10;28.20;;;;;;5521803;26;20002;-57
2024/04/18 12:21:34;;;;;;;6.88;1.23;;;14.30;1.00;;;;;;5514112;26;20078;-57
2024/04/18 12:24:00;;;;;;;8.05;1.10;;;14.30;1.00;;;;;;5511510;26;20005;-57
2024/04/18 12:26:25;;;;;;;6.82;1.20;;;14.10;99.90;;;;;;5498241;26;20081;-57
2024/04/18 12:28:51;;;;;;;7.22;1.08;;;14.10;1.00;;;;;;5466200;26;20038;-57
2024/04/18 12:31:17;;;;;;;7.50;1.20;;;13.50;69.90;;;;;;5487571;26;20018;-57
2024/04/18 12:33:43;;;;;;;6.10;1.00;;;13.50;1.00;;;;;;5522477;26;20013;-57
2024/04/18 12:36:11;;;;;;;8.32;0.95;;;13.40;1.00;;;;;;5515215;26;20017;-57
2024/04/18 12:38:37;;;;;;;8.70;1.10;;;13.40;99.90;;;;;;5490283;26;20024;-57
2024/04/18 12:41:03;;;;;;;9.63;1.20;;;13.10;1.00;;;;;;5488456;26;20700;-57
2024/04/18 12:43:29;;;;;;;6.65;1.20;;;13.10;1.00;;;;;;5487059;26;20017;-57
2024/04/18 12:46:00;;;;;;;9.02;1.35;;;13.40;1.00;;;;;;5485447;26;20005;-57
2024/04/18 12:48:25;;;;;;;7.30;1.20;;;13.40;1.00;;;;;;5496880;26;20013;-58
2024/04/18 12:50:51;;;;;;;5.93;1.20;;;13.90;1.00;;;;;;5489377;26;20005;-57
2024/04/18 12:53:17;;;;;;;5.68;0.98;;;13.90;99.90;;;;;;5492018;26;20006;-57
2024/04/18 12:55:43;;;;;;;8.00;1.10;;;14.20;99.90;;;;;;5509733;26;20006;-58
2024/04/18 12:58:09;;;;;;;3.47;1.15;;;14.60;99.90;;;;;;5505694;26;20017;-57
2024/04/18 13:00:34;;;;;;;7.32;1.23;;;14.70;1.00;;;;;;5496137;26;20006;-58